Time;durP1;ratioP1;P1;durP2;ratioP2;P2;SDS_P1;SDS_P2;PMS_P1;PMS_P2;Temp;Humidity;BMP_temperature;BMP_pressure;BME280_temperature;BME280_humidity;BME280_pressure;Samples;Min_cycle;Max_cycle;Signal;HPM_P1;HPM_P2
2021/04/22 17:16:46;;;;;;;7.30;2.38;;;22.20;42.40;;;;;;5150388;27;20319;-76
2021/04/22 17:19:13;;;;;;;7.95;2.00;;;21.60;41.40;;;;;;5150157;27;20371;-76
2021/04/22 17:21:39;;;;;;;6.68;2.03;;;21.10;41.40;;;;;;5141722;27;20054;-75
2021/04/22 17:24:05;;;;;;;9.88;2.45;;;21.20;41.70;;;;;;5129722;27;20055;-75
2021/04/22 17:26:33;;;;;;;4.93;1.90;;;21.20;41.10;;;;;;5129645;28;20066;-74
2021/04/22 17:28:59;;;;;;;7.35;2.42;;;20.90;41.50;;;;;;5142484;27;20031;-74
2021/04/22 17:31:26;;;;;;;7.22;2.60;;;20.30;42.20;;;;;;5149333;27;20031;-74
2021/04/22 17:33:52;;;;;;;8.30;2.70;;;20.10;42.80;;;;;;5149936;27;20023;-75
2021/04/22 17:36:18;;;;;;;8.32;2.22;;;19.90;43.60;;;;;;5149274;27;20490;-74
2021/04/22 17:38:44;;;;;;;6.70;2.10;;;19.80;43.70;;;;;;5129106;28;20030;-74
2021/04/22 17:41:10;;;;;;;7.68;2.08;;;19.70;44.10;;;;;;5128520;28;20024;-77
2021/04/22 17:43:35;;;;;;;7.57;2.05;;;20.00;43.70;;;;;;5129274;28;20019;-75
2021/04/22 17:46:02;;;;;;;7.47;2.45;;;19.50;43.80;;;;;;5129305;27;20030;-74
2021/04/22 17:48:28;;;;;;;7.25;1.80;;;19.30;44.80;;;;;;5129405;28;20428;-74
2021/04/22 17:50:54;;;;;;;5.97;1.98;;;18.60;45.50;;;;;;5126913;27;20055;-74
2021/04/22 17:53:21;;;;;;;11.35;2.00;;;18.50;45.80;;;;;;5130640;27;20025;-76
2021/04/22 17:55:47;;;;;;;4.97;1.80;;;18.30;46.20;;;;;;5145563;27;20401;-75
2021/04/22 17:58:14;;;;;;;5.82;1.52;;;17.80;46.80;;;;;;5146196;27;20102;-75
2021/04/22 18:00:42;;;;;;;9.20;2.25;;;17.70;47.20;;;;;;5144622;27;20138;-75
2021/04/22 18:03:08;;;;;;;10.73;2.47;;;17.10;48.20;;;;;;5145124;27;20391;-76
2021/04/22 18:05:35;;;;;;;10.65;1.73;;;16.60;49.30;;;;;;5135042;27;20395;-76
2021/04/22 18:08:01;;;;;;;10.52;2.38;;;16.10;50.60;;;;;;5124929;28;20619;-75
2021/04/22 18:10:29;;;;;;;11.32;1.98;;;15.60;50.80;;;;;;5123775;28;20114;-74
2021/04/22 18:12:56;;;;;;;6.13;1.75;;;15.20;51.80;;;;;;5124057;28;20031;-74
2021/04/22 18:15:22;;;;;;;7.78;1.60;;;14.90;52.10;;;;;;5124316;28;20417;-74
2021/04/22 18:17:53;;;;;;;8.07;2.05;;;14.50;52.40;;;;;;5127597;27;20026;-74
2021/04/22 18:20:21;;;;;;;11.18;2.38;;;14.50;53.50;;;;;;5127851;28;20038;-74
2021/04/22 18:22:48;;;;;;;7.30;1.63;;;13.90;52.20;;;;;;5147934;27;20029;-74
2021/04/22 18:25:15;;;;;;;7.88;1.83;;;13.80;53.80;;;;;;5149336;27;20014;-74
2021/04/22 18:27:42;;;;;;;4.63;1.52;;;13.60;55.00;;;;;;5137855;27;20051;-74
2021/04/22 18:30:10;;;;;;;12.35;2.10;;;13.40;55.00;;;;;;5134634;27;20031;-74
2021/04/22 18:32:36;;;;;;;4.30;1.45;;;13.20;55.10;;;;;;5128331;27;20504;-74
2021/04/22 18:35:03;;;;;;;5.70;2.00;;;13.00;55.90;;;;;;5111039;27;20035;-75
2021/04/22 18:37:29;;;;;;;10.13;1.88;;;13.00;56.10;;;;;;5111804;28;20019;-75
2021/04/22 18:39:55;;;;;;;6.53;1.67;;;12.70;55.70;;;;;;5108431;28;20027;-74
2021/04/22 18:42:21;;;;;;;5.50;1.42;;;12.60;56.20;;;;;;5111131;28;20076;-74
2021/04/22 18:44:48;;;;;;;6.20;1.73;;;12.40;56.60;;;;;;5110368;28;20118;-75
2021/04/22 18:47:14;;;;;;;8.23;1.75;;;12.20;56.40;;;;;;5110992;28;20027;-74
2021/04/22 18:49:40;;;;;;;5.70;2.10;;;12.20;56.50;;;;;;5110708;28;20027;-74
2021/04/22 18:52:06;;;;;;;11.77;2.30;;;11.80;56.70;;;;;;5114483;28;20586;-74
2021/04/22 18:54:33;;;;;;;6.22;1.95;;;11.90;58.00;;;;;;5114434;28;20047;-75
2021/04/22 18:56:59;;;;;;;7.13;1.52;;;11.30;60.30;;;;;;5114583;28;20031;-75
2021/04/22 18:59:25;;;;;;;8.88;2.15;;;11.10;62.00;;;;;;5132260;27;20023;-75
2021/04/22 19:01:51;;;;;;;4.85;1.70;;;11.30;62.60;;;;;;5130560;27;20055;-74
2021/04/22 19:04:17;;;;;;;8.55;3.17;;;10.70;62.20;;;;;;5133960;27;20027;-74
2021/04/22 19:06:43;;;;;;;10.23;3.30;;;10.80;63.90;;;;;;5134589;27;20023;-74
2021/04/22 19:09:08;;;;;;;8.30;1.92;;;10.60;64.10;;;;;;5134395;27;20118;-74
2021/04/22 19:11:36;;;;;;;7.05;2.88;;;10.70;66.00;;;;;;5134115;27;20106;-74
2021/04/22 19:14:03;;;;;;;14.35;4.03;;;10.10;68.20;;;;;;5126111;27;20385;-75
2021/04/22 19:16:30;;;;;;;10.27;4.10;;;10.00;69.80;;;;;;5112722;28;20040;-75
2021/04/22 19:18:56;;;;;;;7.80;3.05;;;9.90;69.90;;;;;;5112840;28;20027;-74
2021/04/22 19:21:22;;;;;;;11.05;4.70;;;;;;;;;;5113343;28;20494;-75
2021/04/22 19:23:48;;;;;;;9.13;3.80;;;;;;;;;;5113908;28;20016;-75
2021/04/22 19:26:14;;;;;;;11.52;4.03;;;;;;;;;;5114295;28;20019;-74
2021/04/22 19:28:40;;;;;;;10.93;4.55;;;;;;;;;;5124997;27;20035;-71
2021/04/22 19:31:07;;;;;;;11.70;4.55;;;;;;;;;;5133621;27;20395;-74
2021/04/22 19:33:33;;;;;;;12.63;4.60;;;;;;;;;;5134616;27;20033;-74
2021/04/22 19:35:59;;;;;;;11.70;3.78;;;;;;;;;;5132824;27;20035;-74
2021/04/22 19:38:27;;;;;;;13.73;4.68;;;;;;;;;;5133709;27;20023;-74
2021/04/22 19:40:54;;;;;;;9.20;4.00;;;;;;;;;;5132541;27;20031;-74
2021/04/22 19:43:23;;;;;;;9.55;4.50;;;10.10;70.10;;;;;;5114961;27;20028;-74
2021/04/22 19:45:49;;;;;;;11.82;4.43;;;8.70;83.10;;;;;;5111110;27;20495;-72
2021/04/22 19:48:23;;;;;;;16.27;4.43;;;8.50;86.20;;;;;;5129304;27;20562;-73
2021/04/22 19:50:52;;;;;;;10.13;4.00;;;8.40;90.20;;;;;;5128355;27;20073;-73
2021/04/22 19:53:18;;;;;;;14.55;3.58;;;8.50;93.40;;;;;;5129346;27;20019;-74
2021/04/22 19:55:47;;;;;;;11.00;4.43;;;8.20;92.80;;;;;;5128634;27;20387;-74
2021/04/22 19:58:14;;;;;;;20.08;7.28;;;8.10;95.10;;;;;;5129904;27;20053;-74
2021/04/22 20:00:41;;;;;;;17.00;7.68;;;8.00;95.70;;;;;;5128689;27;20043;-74
2021/04/22 20:03:07;;;;;;;20.95;7.38;;;8.70;97.00;;;;;;5129883;27;20066;-74
2021/04/22 20:05:35;;;;;;;10.07;4.40;;;7.80;99.20;;;;;;5132854;27;20031;-74
2021/04/22 20:08:02;;;;;;;14.70;4.50;;;7.80;99.90;;;;;;5149756;27;20501;-75
2021/04/22 20:10:27;;;;;;;11.35;3.42;;;7.90;99.90;;;;;;5141910;27;20027;-77
2021/04/22 20:12:53;;;;;;;12.73;3.85;;;7.90;99.90;;;;;;5134814;27;20544;-76
2021/04/22 20:15:22;;;;;;;8.65;3.97;;;7.70;99.90;;;;;;5133675;27;20503;-76
2021/04/22 20:17:49;;;;;;;12.80;3.10;;;7.80;99.90;;;;;;5124248;27;20019;-77
2021/04/22 20:20:19;;;;;;;8.05;3.10;;;7.40;99.90;;;;;;5119500;27;20023;-73
2021/04/22 20:22:49;;;;;;;8.82;2.95;;;7.40;99.90;;;;;;5121329;27;20021;-72
2021/04/22 20:25:15;;;;;;;6.30;2.63;;;7.40;99.90;;;;;;5122069;27;20030;-73
2021/04/22 20:27:41;;;;;;;6.45;2.50;;;7.10;99.90;;;;;;5120876;27;20020;-75
2021/04/22 20:30:11;;;;;;;9.27;2.47;;;7.60;99.90;;;;;;5122375;27;20395;-72
2021/04/22 20:32:37;;;;;;;10.40;2.53;;;7.10;99.90;;;;;;5122267;27;20372;-74
2021/04/22 20:35:05;;;;;;;7.80;2.13;;;7.20;99.90;;;;;;5122699;27;20026;-72
2021/04/22 20:37:32;;;;;;;9.15;2.80;;;7.00;99.90;;;;;;5121406;27;20024;-73
2021/04/22 20:39:58;;;;;;;9.52;2.50;;;7.50;99.90;;;;;;5120313;27;20376;-73
2021/04/22 20:42:24;;;;;;;9.00;3.00;;;6.70;99.90;;;;;;5122870;27;20015;-72
2021/04/22 20:44:55;;;;;;;11.13;3.83;;;6.60;99.90;;;;;;5121680;27;20024;-74
2021/04/22 20:47:25;;;;;;;12.38;3.10;;;6.40;99.90;;;;;;5120993;27;20032;-73
2021/04/22 20:49:52;;;;;;;11.52;2.47;;;6.40;99.90;;;;;;5121554;27;20078;-73
2021/04/22 20:52:18;;;;;;;7.50;2.05;;;6.40;99.90;;;;;;5131414;27;20031;-73
2021/04/22 20:54:44;;;;;;;8.13;2.53;;;6.40;99.90;;;;;;5121717;27;20072;-74
2021/04/22 20:57:11;;;;;;;5.47;2.00;;;6.40;99.90;;;;;;5122462;27;20076;-73
2021/04/22 20:59:39;;;;;;;15.15;5.55;;;6.40;99.90;;;;;;5122443;27;20024;-73
2021/04/22 21:02:06;;;;;;;32.05;12.98;;;6.90;99.90;;;;;;5121630;27;20020;-73
2021/04/22 21:04:31;;;;;;;13.43;6.78;;;6.20;99.90;;;;;;5121117;27;20024;-75
2021/04/22 21:06:57;;;;;;;9.80;4.30;;;6.80;99.90;;;;;;5116006;27;20585;-74
2021/04/22 21:09:27;;;;;;;12.48;4.85;;;6.50;99.90;;;;;;5112430;28;20384;-74
2021/04/22 21:11:56;;;;;;;12.70;4.05;;;5.90;99.90;;;;;;5112122;28;20034;-73
2021/04/22 21:14:23;;;;;;;13.43;3.22;;;5.90;99.90;;;;;;5111196;28;20034;-74
2021/04/22 21:16:50;;;;;;;10.18;4.03;;;5.90;99.90;;;;;;5112595;28;20039;-73
2021/04/22 21:19:18;;;;;;;11.50;3.95;;;5.90;99.90;;;;;;5112502;28;20389;-75
2021/04/22 21:21:47;;;;;;;17.65;3.80;;;5.90;99.90;;;;;;5111589;28;20019;-73
2021/04/22 21:24:21;;;;;;;10.10;4.68;;;6.30;99.90;;;;;;5111262;28;20019;-74
2021/04/22 21:27:08;;;;;;;15.02;3.70;;;6.20;99.90;;;;;;5112558;28;20020;-74
2021/04/22 21:29:45;;;;;;;10.05;3.50;;;5.60;99.90;;;;;;5130887;28;20502;-72
2021/04/22 21:32:15;;;;;;;5.68;2.30;;;5.60;99.90;;;;;;5133102;28;20476;-73
2021/04/22 21:34:42;;;;;;;8.05;2.78;;;5.80;99.90;;;;;;5124369;27;20500;-74
2021/04/22 21:37:09;;;;;;;10.25;3.38;;;5.50;99.90;;;;;;5112181;28;20094;-74
2021/04/22 21:39:35;;;;;;;10.57;3.35;;;5.40;99.90;;;;;;5111963;28;20102;-74
2021/04/22 21:42:02;;;;;;;8.10;3.15;;;5.40;99.90;;;;;;5114218;28;20106;-74
2021/04/22 21:44:28;;;;;;;9.85;4.35;;;5.50;99.90;;;;;;5131583;28;20027;-74
2021/04/22 21:46:54;;;;;;;10.15;4.93;;;5.40;99.90;;;;;;5131218;27;20029;-72
2021/04/22 21:49:21;;;;;;;10.48;4.38;;;5.50;99.90;;;;;;5131602;28;20080;-73
2021/04/22 21:51:46;;;;;;;14.02;4.90;;;5.30;99.90;;;;;;5132359;27;20031;-73
2021/04/22 21:54:13;;;;;;;16.02;3.67;;;5.60;99.90;;;;;;5132742;27;20028;-73
2021/04/22 21:56:40;;;;;;;7.20;3.72;;;5.20;99.90;;;;;;5132426;27;20027;-74
2021/04/22 21:59:07;;;;;;;11.75;3.97;;;5.20;99.90;;;;;;5132585;27;20028;-72
2021/04/22 22:01:34;;;;;;;12.32;3.30;;;;;;;;;;5131014;27;20031;-73
2021/04/22 22:04:01;;;;;;;7.18;3.40;;;;;;;;;;5134593;27;20034;-73
2021/04/22 22:06:31;;;;;;;7.53;3.00;;;;;;;;;;5136126;27;20023;-73
2021/04/22 22:08:57;;;;;;;12.60;3.78;;;;;;;;;;5136592;27;20055;-73
2021/04/22 22:11:25;;;;;;;9.18;2.92;;;;;;;;;;5122021;27;20035;-73
2021/04/22 22:13:51;;;;;;;11.38;3.53;;;;;;;;;;5115047;28;20034;-73
2021/04/22 22:16:17;;;;;;;8.57;3.90;;;;;;;;;;5115557;28;20039;-73
2021/04/22 22:18:43;;;;;;;7.35;3.08;;;;;;;;;;5115736;28;20027;-73
2021/04/22 22:21:09;;;;;;;9.07;3.25;;;;;;;;;;5114751;28;20027;-72
2021/04/22 22:23:35;;;;;;;12.02;3.22;;;;;;;;;;5115679;28;20034;-72
2021/04/22 22:26:01;;;;;;;5.70;2.78;;;;;;;;;;5115737;28;20092;-73
2021/04/22 22:28:28;;;;;;;7.65;3.33;;;;;;;;;;5125139;27;20084;-72
2021/04/22 22:30:55;;;;;;;8.80;3.20;;;;;;;;;;5135464;27;20029;-73
2021/04/22 22:33:24;;;;;;;8.05;2.72;;;;;;;;;;5135895;27;20027;-73
2021/04/22 22:35:50;;;;;;;7.32;2.90;;;;;;;;;;5135758;27;20047;-74
2021/04/22 22:38:17;;;;;;;8.73;2.97;;;;;;;;;;5134197;27;20030;-74
2021/04/22 22:40:43;;;;;;;5.97;3.22;;;;;;;;;;5114753;28;20114;-72
2021/04/22 22:43:09;;;;;;;16.77;3.70;;;;;;;;;;5115912;28;20020;-73
2021/04/22 22:45:36;;;;;;;11.18;3.55;;;;;;;;;;5115325;28;20023;-73
2021/04/22 22:48:02;;;;;;;8.88;2.95;;;;;;;;;;5115049;28;20549;-73
2021/04/22 22:50:28;;;;;;;9.45;2.92;;;;;;;;;;5114331;28;20023;-73
2021/04/22 22:52:55;;;;;;;9.68;3.58;;;;;;;;;;5115172;28;20031;-73
2021/04/22 22:55:21;;;;;;;9.65;2.50;;;;;;;;;;5115194;28;20499;-74
2021/04/22 22:57:48;;;;;;;9.27;3.00;;;;;;;;;;5118908;27;20035;-73
2021/04/22 23:00:14;;;;;;;10.68;3.55;;;;;;;;;;5134778;27;20019;-72
2021/04/22 23:02:42;;;;;;;16.48;4.55;;;;;;;;;;5135294;27;20078;-72
2021/04/22 23:05:09;;;;;;;13.60;4.82;;;;;;;;;;5135114;27;20076;-73
2021/04/22 23:07:35;;;;;;;12.77;3.95;;;;;;;;;;5123203;27;20032;-74
2021/04/22 23:10:01;;;;;;;11.80;4.13;;;;;;;;;;5114092;28;20114;-73
2021/04/22 23:12:28;;;;;;;13.18;3.88;;;;;;;;;;5114534;28;20031;-73
